Terminal Aerodrome Forecast
Issued by NWS Paducah, KY

Home | Current Version | Previous Version | Text Only | Print | Product List | Glossary Off
Versions: 1 2 3 4 5 6 7 8 9 10 11 12 13

000
FTUS43 KPAH 282300
TAFEVV
TAF
KEVV 282326Z 2900/2924 VRB04KT P6SM BKN100 OVC250
     FM290300 31003KT P6SM SCT250
     FM291500 29008KT P6SM SCT050=

USA.gov is the U.S. government's official web portal to all federal, state and local government web resources and services.